sensor_id;sensor_type;location;lat;lon;timestamp;P1;durP1;ratioP1;P2;durP2;ratioP2
25649;SDS011;13505;45.196;5.696;2023-03-14T05:01:45;0.80;;;0.25;;
25649;SDS011;13505;45.196;5.696;2023-03-14T05:06:36;0.82;;;0.25;;
25649;SDS011;13505;45.196;5.696;2023-03-14T05:11:26;3.03;;;0.38;;
25649;SDS011;13505;45.196;5.696;2023-03-14T05:16:16;0.20;;;0.20;;
25649;SDS011;13505;45.196;5.696;2023-03-14T05:21:07;0.45;;;0.38;;
25649;SDS011;13505;45.196;5.696;2023-03-14T05:25:57;0.63;;;0.20;;
25649;SDS011;13505;45.196;5.696;2023-03-14T05:30:47;0.40;;;0.30;;
25649;SDS011;13505;45.196;5.696;2023-03-14T05:35:38;2.20;;;0.50;;
25649;SDS011;13505;45.196;5.696;2023-03-14T05:40:29;1.05;;;0.40;;
25649;SDS011;13505;45.196;5.696;2023-03-14T05:45:19;1.55;;;0.40;;
25649;SDS011;13505;45.196;5.696;2023-03-14T05:50:10;1.63;;;0.60;;
25649;SDS011;13505;45.196;5.696;2023-03-14T05:55:00;2.50;;;0.77;;
25649;SDS011;13505;45.196;5.696;2023-03-14T05:59:51;3.75;;;1.73;;
25649;SDS011;13505;45.196;5.696;2023-03-14T06:04:41;3.78;;;2.45;;
25649;SDS011;13505;45.196;5.696;2023-03-14T06:09:32;1.50;;;1.00;;
25649;SDS011;13505;45.196;5.696;2023-03-14T06:14:22;1.23;;;0.90;;
25649;SDS011;13505;45.196;5.696;2023-03-14T06:19:12;2.33;;;1.10;;
25649;SDS011;13505;45.196;5.696;2023-03-14T06:24:03;1.93;;;1.20;;
25649;SDS011;13505;45.196;5.696;2023-03-14T06:28:54;1.52;;;0.90;;
25649;SDS011;13505;45.196;5.696;2023-03-14T06:33:44;2.55;;;0.88;;
25649;SDS011;13505;45.196;5.696;2023-03-14T06:38:34;1.40;;;0.77;;
25649;SDS011;13505;45.196;5.696;2023-03-14T06:43:25;0.55;;;0.50;;
25649;SDS011;13505;45.196;5.696;2023-03-14T06:48:15;6.60;;;0.60;;
25649;SDS011;13505;45.196;5.696;2023-03-14T06:53:05;0.88;;;0.50;;
25649;SDS011;13505;45.196;5.696;2023-03-14T06:57:56;2.60;;;0.40;;
25649;SDS011;13505;45.196;5.696;2023-03-14T07:02:46;3.10;;;0.53;;
25649;SDS011;13505;45.196;5.696;2023-03-14T07:07:36;0.80;;;0.40;;
25649;SDS011;13505;45.196;5.696;2023-03-14T07:12:27;1.73;;;0.60;;
25649;SDS011;13505;45.196;5.696;2023-03-14T07:17:17;3.93;;;0.60;;
25649;SDS011;13505;45.196;5.696;2023-03-14T07:22:08;3.13;;;0.80;;
25649;SDS011;13505;45.196;5.696;2023-03-14T07:26:58;2.60;;;1.13;;
25649;SDS011;13505;45.196;5.696;2023-03-14T07:31:48;2.07;;;1.00;;
25649;SDS011;13505;45.196;5.696;2023-03-14T07:36:39;1.92;;;1.10;;
25649;SDS011;13505;45.196;5.696;2023-03-14T07:41:30;2.05;;;1.10;;
25649;SDS011;13505;45.196;5.696;2023-03-14T07:46:20;2.30;;;1.00;;
25649;SDS011;13505;45.196;5.696;2023-03-14T07:51:11;2.25;;;1.17;;
25649;SDS011;13505;45.196;5.696;2023-03-14T07:56:01;6.72;;;2.38;;
25649;SDS011;13505;45.196;5.696;2023-03-14T08:00:51;3.42;;;1.30;;
25649;SDS011;13505;45.196;5.696;2023-03-14T08:05:43;1.13;;;0.70;;
25649;SDS011;13505;45.196;5.696;2023-03-14T08:10:33;1.83;;;0.90;;
25649;SDS011;13505;45.196;5.696;2023-03-14T08:15:24;3.42;;;1.00;;
25649;SDS011;13505;45.196;5.696;2023-03-14T08:20:15;6.70;;;1.05;;
25649;SDS011;13505;45.196;5.696;2023-03-14T08:25:05;1.77;;;0.80;;
25649;SDS011;13505;45.196;5.696;2023-03-14T08:29:56;1.45;;;1.00;;
25649;SDS011;13505;45.196;5.696;2023-03-14T08:34:46;4.13;;;1.90;;
25649;SDS011;13505;45.196;5.696;2023-03-14T08:39:37;5.03;;;2.50;;
25649;SDS011;13505;45.196;5.696;2023-03-14T08:44:27;3.03;;;1.75;;
25649;SDS011;13505;45.196;5.696;2023-03-14T08:49:18;5.57;;;1.60;;
25649;SDS011;13505;45.196;5.696;2023-03-14T08:54:09;2.45;;;1.23;;
25649;SDS011;13505;45.196;5.696;2023-03-14T08:59:00;5.70;;;1.30;;
25649;SDS011;13505;45.196;5.696;2023-03-14T09:03:51;7.05;;;1.95;;
25649;SDS011;13505;45.196;5.696;2023-03-14T09:08:41;5.60;;;1.58;;
25649;SDS011;13505;45.196;5.696;2023-03-14T09:13:31;1.80;;;1.20;;
25649;SDS011;13505;45.196;5.696;2023-03-14T09:18:22;3.60;;;1.55;;
25649;SDS011;13505;45.196;5.696;2023-03-14T09:23:13;2.28;;;1.00;;
25649;SDS011;13505;45.196;5.696;2023-03-14T09:28:04;6.60;;;2.60;;
25649;SDS011;13505;45.196;5.696;2023-03-14T09:32:54;1.70;;;1.20;;
25649;SDS011;13505;45.196;5.696;2023-03-14T09:37:45;2.92;;;1.70;;
25649;SDS011;13505;45.196;5.696;2023-03-14T09:42:35;2.95;;;1.75;;
25649;SDS011;13505;45.196;5.696;2023-03-14T09:47:28;3.15;;;1.50;;
25649;SDS011;13505;45.196;5.696;2023-03-14T09:52:32;3.35;;;1.15;;
25649;SDS011;13505;45.196;5.696;2023-03-14T09:57:27;3.25;;;1.08;;
25649;SDS011;13505;45.196;5.696;2023-03-14T10:02:19;2.30;;;1.08;;
25649;SDS011;13505;45.196;5.696;2023-03-14T10:07:14;4.40;;;1.20;;
25649;SDS011;13505;45.196;5.696;2023-03-14T10:12:09;4.10;;;0.98;;
25649;SDS011;13505;45.196;5.696;2023-03-14T10:17:07;3.88;;;1.10;;
25649;SDS011;13505;45.196;5.696;2023-03-14T10:22:00;1.83;;;0.98;;
25649;SDS011;13505;45.196;5.696;2023-03-14T10:26:57;4.85;;;0.80;;
25649;SDS011;13505;45.196;5.696;2023-03-14T10:31:52;3.75;;;1.20;;
25649;SDS011;13505;45.196;5.696;2023-03-14T10:36:54;1.48;;;0.80;;
25649;SDS011;13505;45.196;5.696;2023-03-14T10:47:15;1.20;;;0.95;;
25649;SDS011;13505;45.196;5.696;2023-03-14T10:52:13;2.22;;;1.08;;
25649;SDS011;13505;45.196;5.696;2023-03-14T10:57:12;3.80;;;1.00;;
25649;SDS011;13505;45.196;5.696;2023-03-14T11:02:13;3.47;;;1.02;;
25649;SDS011;13505;45.196;5.696;2023-03-14T11:07:14;5.45;;;0.60;;
25649;SDS011;13505;45.196;5.696;2023-03-14T11:12:34;2.17;;;0.80;;
25649;SDS011;13505;45.196;5.696;2023-03-14T11:23:18;4.85;;;0.90;;
25649;SDS011;13505;45.196;5.696;2023-03-14T11:28:18;3.05;;;0.95;;
25649;SDS011;13505;45.196;5.696;2023-03-14T11:33:17;8.55;;;0.88;;
25649;SDS011;13505;45.196;5.696;2023-03-14T11:38:24;2.83;;;0.70;;
25649;SDS011;13505;45.196;5.696;2023-03-14T11:43:24;6.22;;;1.13;;
25649;SDS011;13505;45.196;5.696;2023-03-14T12:04:33;5.45;;;0.90;;
25649;SDS011;13505;45.196;5.696;2023-03-14T12:09:45;3.40;;;1.02;;
25649;SDS011;13505;45.196;5.696;2023-03-14T12:14:37;5.13;;;0.75;;
25649;SDS011;13505;45.196;5.696;2023-03-14T12:19:39;3.25;;;0.80;;
25649;SDS011;13505;45.196;5.696;2023-03-14T12:24:30;3.88;;;0.93;;
25649;SDS011;13505;45.196;5.696;2023-03-14T12:29:26;2.38;;;0.70;;
25649;SDS011;13505;45.196;5.696;2023-03-14T12:39:10;3.53;;;0.77;;
25649;SDS011;13505;45.196;5.696;2023-03-14T12:49:19;3.90;;;0.68;;
25649;SDS011;13505;45.196;5.696;2023-03-14T12:59:34;6.57;;;0.70;;
25649;SDS011;13505;45.196;5.696;2023-03-14T13:04:46;3.30;;;0.90;;
25649;SDS011;13505;45.196;5.696;2023-03-14T13:09:53;5.63;;;0.63;;
25649;SDS011;13505;45.196;5.696;2023-03-14T13:14:49;3.17;;;0.90;;
25649;SDS011;13505;45.196;5.696;2023-03-14T13:19:41;2.40;;;0.80;;
25649;SDS011;13505;45.196;5.696;2023-03-14T13:24:33;3.72;;;0.85;;
25649;SDS011;13505;45.196;5.696;2023-03-14T13:29:25;3.28;;;0.70;;
25649;SDS011;13505;45.196;5.696;2023-03-14T13:34:18;3.13;;;0.70;;
25649;SDS011;13505;45.196;5.696;2023-03-14T13:44:31;4.78;;;0.70;;
25649;SDS011;13505;45.196;5.696;2023-03-14T13:49:24;2.83;;;1.15;;
25649;SDS011;13505;45.196;5.696;2023-03-14T13:54:17;5.22;;;0.60;;
25649;SDS011;13505;45.196;5.696;2023-03-14T13:59:28;2.70;;;0.77;;
25649;SDS011;13505;45.196;5.696;2023-03-14T14:04:23;3.47;;;0.90;;
25649;SDS011;13505;45.196;5.696;2023-03-14T14:09:17;7.43;;;2.00;;
25649;SDS011;13505;45.196;5.696;2023-03-14T14:14:13;2.92;;;0.82;;
25649;SDS011;13505;45.196;5.696;2023-03-14T14:19:10;2.85;;;0.88;;
25649;SDS011;13505;45.196;5.696;2023-03-14T14:24:03;2.35;;;0.90;;
25649;SDS011;13505;45.196;5.696;2023-03-14T14:29:05;2.58;;;0.80;;
25649;SDS011;13505;45.196;5.696;2023-03-14T14:33:57;4.22;;;0.95;;
25649;SDS011;13505;45.196;5.696;2023-03-14T14:38:56;1.48;;;0.70;;
25649;SDS011;13505;45.196;5.696;2023-03-14T14:43:48;3.67;;;0.80;;
25649;SDS011;13505;45.196;5.696;2023-03-14T14:48:41;4.07;;;0.98;;
25649;SDS011;13505;45.196;5.696;2023-03-14T14:53:39;5.38;;;2.45;;
25649;SDS011;13505;45.196;5.696;2023-03-14T14:58:35;3.50;;;0.90;;
25649;SDS011;13505;45.196;5.696;2023-03-14T15:03:30;2.63;;;1.10;;
25649;SDS011;13505;45.196;5.696;2023-03-14T15:08:24;1.90;;;0.80;;
25649;SDS011;13505;45.196;5.696;2023-03-14T15:13:16;4.68;;;1.20;;
25649;SDS011;13505;45.196;5.696;2023-03-14T15:18:11;4.13;;;0.93;;
25649;SDS011;13505;45.196;5.696;2023-03-14T15:23:09;6.55;;;1.40;;
25649;SDS011;13505;45.196;5.696;2023-03-14T15:28:05;4.57;;;1.40;;
25649;SDS011;13505;45.196;5.696;2023-03-14T15:33:03;5.32;;;1.20;;
25649;SDS011;13505;45.196;5.696;2023-03-14T15:37:53;3.22;;;1.20;;
25649;SDS011;13505;45.196;5.696;2023-03-14T15:42:45;5.60;;;1.10;;
25649;SDS011;13505;45.196;5.696;2023-03-14T15:47:35;5.75;;;1.10;;
25649;SDS011;13505;45.196;5.696;2023-03-14T15:52:26;3.15;;;1.00;;
25649;SDS011;13505;45.196;5.696;2023-03-14T15:57:16;3.07;;;1.13;;
25649;SDS011;13505;45.196;5.696;2023-03-14T16:02:07;3.07;;;1.03;;
25649;SDS011;13505;45.196;5.696;2023-03-14T16:06:59;4.35;;;1.25;;
25649;SDS011;13505;45.196;5.696;2023-03-14T16:11:50;3.88;;;1.27;;
25649;SDS011;13505;45.196;5.696;2023-03-14T16:16:40;2.65;;;0.80;;
25649;SDS011;13505;45.196;5.696;2023-03-14T16:21:30;3.25;;;0.70;;
25649;SDS011;13505;45.196;5.696;2023-03-14T16:26:22;4.30;;;2.00;;
25649;SDS011;13505;45.196;5.696;2023-03-14T16:31:13;9.65;;;1.50;;
25649;SDS011;13505;45.196;5.696;2023-03-14T16:36:06;4.50;;;1.15;;
25649;SDS011;13505;45.196;5.696;2023-03-14T16:40:58;6.03;;;3.22;;
25649;SDS011;13505;45.196;5.696;2023-03-14T16:45:55;3.40;;;1.38;;
25649;SDS011;13505;45.196;5.696;2023-03-14T16:50:48;3.15;;;1.63;;
25649;SDS011;13505;45.196;5.696;2023-03-14T16:55:43;4.03;;;2.50;;
25649;SDS011;13505;45.196;5.696;2023-03-14T17:00:34;9.02;;;3.20;;
25649;SDS011;13505;45.196;5.696;2023-03-14T17:05:25;6.85;;;2.70;;
25649;SDS011;13505;45.196;5.696;2023-03-14T17:10:16;2.53;;;1.45;;
25649;SDS011;13505;45.196;5.696;2023-03-14T17:15:07;2.80;;;1.20;;
25649;SDS011;13505;45.196;5.696;2023-03-14T17:19:57;3.15;;;1.50;;
25649;SDS011;13505;45.196;5.696;2023-03-14T17:24:48;2.67;;;1.40;;
25649;SDS011;13505;45.196;5.696;2023-03-14T17:29:38;7.15;;;1.63;;
25649;SDS011;13505;45.196;5.696;2023-03-14T17:34:28;6.13;;;2.80;;
25649;SDS011;13505;45.196;5.696;2023-03-14T17:39:19;4.88;;;2.45;;
25649;SDS011;13505;45.196;5.696;2023-03-14T17:44:09;3.67;;;1.95;;
25649;SDS011;13505;45.196;5.696;2023-03-14T17:48:59;8.10;;;3.53;;
25649;SDS011;13505;45.196;5.696;2023-03-14T17:53:50;9.27;;;3.30;;
25649;SDS011;13505;45.196;5.696;2023-03-14T17:58:40;8.75;;;3.83;;
25649;SDS011;13505;45.196;5.696;2023-03-14T18:03:34;7.63;;;3.63;;
25649;SDS011;13505;45.196;5.696;2023-03-14T18:08:24;7.40;;;2.88;;
25649;SDS011;13505;45.196;5.696;2023-03-14T18:13:14;2.57;;;1.23;;
25649;SDS011;13505;45.196;5.696;2023-03-14T18:18:05;3.63;;;1.10;;
25649;SDS011;13505;45.196;5.696;2023-03-14T18:22:55;1.42;;;0.90;;
25649;SDS011;13505;45.196;5.696;2023-03-14T18:27:46;4.30;;;1.92;;
25649;SDS011;13505;45.196;5.696;2023-03-14T18:32:36;8.25;;;3.17;;
25649;SDS011;13505;45.196;5.696;2023-03-14T18:37:26;7.43;;;3.75;;
25649;SDS011;13505;45.196;5.696;2023-03-14T18:42:17;4.72;;;1.98;;
25649;SDS011;13505;45.196;5.696;2023-03-14T18:47:07;9.35;;;3.50;;
25649;SDS011;13505;45.196;5.696;2023-03-14T18:51:58;6.10;;;3.97;;
25649;SDS011;13505;45.196;5.696;2023-03-14T18:56:48;12.35;;;6.47;;
25649;SDS011;13505;45.196;5.696;2023-03-14T19:01:39;6.43;;;3.40;;
25649;SDS011;13505;45.196;5.696;2023-03-14T19:06:30;6.88;;;2.58;;
25649;SDS011;13505;45.196;5.696;2023-03-14T19:11:23;6.35;;;2.65;;
25649;SDS011;13505;45.196;5.696;2023-03-14T19:16:15;9.43;;;3.50;;
25649;SDS011;13505;45.196;5.696;2023-03-14T19:21:07;7.10;;;3.13;;
25649;SDS011;13505;45.196;5.696;2023-03-14T19:25:58;10.23;;;3.20;;
25649;SDS011;13505;45.196;5.696;2023-03-14T19:30:51;9.55;;;3.03;;
25649;SDS011;13505;45.196;5.696;2023-03-14T19:35:42;11.40;;;4.53;;
25649;SDS011;13505;45.196;5.696;2023-03-14T19:40:37;11.68;;;6.13;;
25649;SDS011;13505;45.196;5.696;2023-03-14T19:45:28;7.43;;;4.82;;
25649;SDS011;13505;45.196;5.696;2023-03-14T19:50:21;10.80;;;5.50;;
25649;SDS011;13505;45.196;5.696;2023-03-14T19:55:11;10.40;;;5.03;;
25649;SDS011;13505;45.196;5.696;2023-03-14T20:00:02;8.73;;;5.10;;
25649;SDS011;13505;45.196;5.696;2023-03-14T20:04:54;10.90;;;6.15;;
25649;SDS011;13505;45.196;5.696;2023-03-14T20:09:44;14.77;;;8.90;;
25649;SDS011;13505;45.196;5.696;2023-03-14T20:14:34;16.30;;;8.23;;
25649;SDS011;13505;45.196;5.696;2023-03-14T20:19:25;14.15;;;9.02;;
25649;SDS011;13505;45.196;5.696;2023-03-14T20:24:16;15.93;;;7.68;;
25649;SDS011;13505;45.196;5.696;2023-03-14T20:29:07;13.25;;;7.03;;
25649;SDS011;13505;45.196;5.696;2023-03-14T20:33:57;14.13;;;7.72;;
25649;SDS011;13505;45.196;5.696;2023-03-14T20:38:48;14.50;;;7.00;;
25649;SDS011;13505;45.196;5.696;2023-03-14T20:43:38;19.13;;;8.90;;
25649;SDS011;13505;45.196;5.696;2023-03-14T20:48:29;16.20;;;6.85;;
25649;SDS011;13505;45.196;5.696;2023-03-14T20:53:21;19.00;;;9.07;;
25649;SDS011;13505;45.196;5.696;2023-03-14T20:58:12;16.08;;;7.80;;
25649;SDS011;13505;45.196;5.696;2023-03-14T21:03:02;14.60;;;7.30;;
25649;SDS011;13505;45.196;5.696;2023-03-14T21:07:53;13.82;;;7.35;;
25649;SDS011;13505;45.196;5.696;2023-03-14T21:12:43;15.25;;;7.35;;
25649;SDS011;13505;45.196;5.696;2023-03-14T21:17:33;12.98;;;7.00;;
25649;SDS011;13505;45.196;5.696;2023-03-14T21:22:24;11.57;;;7.30;;
25649;SDS011;13505;45.196;5.696;2023-03-14T21:27:15;12.88;;;6.85;;
25649;SDS011;13505;45.196;5.696;2023-03-14T21:32:06;12.73;;;6.55;;
25649;SDS011;13505;45.196;5.696;2023-03-14T21:36:56;11.63;;;6.15;;
25649;SDS011;13505;45.196;5.696;2023-03-14T21:41:47;16.17;;;6.45;;
25649;SDS011;13505;45.196;5.696;2023-03-14T21:46:37;12.75;;;5.40;;
25649;SDS011;13505;45.196;5.696;2023-03-14T21:51:28;10.52;;;5.70;;
25649;SDS011;13505;45.196;5.696;2023-03-14T21:56:20;10.63;;;5.50;;
25649;SDS011;13505;45.196;5.696;2023-03-14T22:01:10;13.68;;;5.53;;
25649;SDS011;13505;45.196;5.696;2023-03-14T22:06:01;14.32;;;6.40;;
25649;SDS011;13505;45.196;5.696;2023-03-14T22:10:52;13.38;;;6.38;;
25649;SDS011;13505;45.196;5.696;2023-03-14T22:15:43;13.77;;;6.25;;
25649;SDS011;13505;45.196;5.696;2023-03-14T22:20:34;13.43;;;7.13;;
25649;SDS011;13505;45.196;5.696;2023-03-14T22:25:25;8.13;;;3.83;;
25649;SDS011;13505;45.196;5.696;2023-03-14T22:30:15;10.15;;;3.90;;
25649;SDS011;13505;45.196;5.696;2023-03-14T22:35:06;14.95;;;5.97;;
25649;SDS011;13505;45.196;5.696;2023-03-14T22:39:57;9.18;;;5.15;;
25649;SDS011;13505;45.196;5.696;2023-03-14T22:44:49;10.40;;;5.20;;
25649;SDS011;13505;45.196;5.696;2023-03-14T22:49:40;10.32;;;4.90;;
25649;SDS011;13505;45.196;5.696;2023-03-14T22:54:31;9.40;;;4.00;;
25649;SDS011;13505;45.196;5.696;2023-03-14T22:59:21;7.82;;;3.55;;
